createdAt,value
2023-05-21T00:00:43.016Z,13.66
2023-05-21T00:03:30.626Z,13.57
2023-05-21T00:05:57.480Z,13.51
2023-05-21T00:08:24.418Z,13.45
2023-05-21T00:10:51.365Z,13.40
2023-05-21T00:13:18.038Z,13.35
2023-05-21T00:15:45.040Z,13.30
2023-05-21T00:18:11.941Z,13.30
2023-05-21T00:20:41.301Z,13.28
2023-05-21T00:23:08.243Z,13.25
2023-05-21T00:25:35.137Z,13.21
2023-05-21T00:28:02.325Z,13.15
2023-05-21T00:30:29.181Z,13.09
2023-05-21T00:32:58.336Z,13.07
2023-05-21T00:35:25.099Z,13.07
2023-05-21T00:37:53.482Z,13.06
2023-05-21T00:40:20.531Z,13.01
2023-05-21T00:42:47.583Z,12.98
2023-05-21T00:45:14.838Z,12.94
2023-05-21T00:47:43.471Z,12.91
2023-05-21T00:50:11.380Z,12.89
2023-05-21T00:52:41.503Z,12.87
2023-05-21T00:55:09.569Z,12.85
2023-05-21T00:57:36.820Z,12.79
2023-05-21T01:00:06.797Z,12.73
2023-05-21T01:02:34.282Z,12.77
2023-05-21T01:05:01.348Z,12.80
2023-05-21T01:07:28.182Z,12.77
2023-05-21T01:09:55.249Z,12.73
2023-05-21T01:12:22.996Z,12.66
2023-05-21T01:14:50.349Z,12.62
2023-05-21T01:17:17.293Z,12.62
2023-05-21T01:19:44.220Z,12.63
2023-05-21T01:22:12.208Z,12.61
2023-05-21T01:24:39.048Z,12.52
2023-05-21T01:27:07.218Z,12.41
2023-05-21T01:29:34.581Z,12.36
2023-05-21T01:32:09.312Z,12.34
2023-05-21T01:34:42.126Z,12.29
2023-05-21T01:37:30.946Z,12.25
2023-05-21T01:40:05.413Z,12.24
2023-05-21T01:42:35.176Z,12.21
2023-05-21T01:45:05.815Z,12.17
2023-05-21T01:47:34.024Z,12.12
2023-05-21T01:50:01.446Z,12.06
2023-05-21T01:52:28.735Z,12.01
2023-05-21T01:54:56.556Z,11.96
2023-05-21T01:57:23.399Z,11.90
2023-05-21T01:59:52.891Z,11.87
2023-05-21T02:02:19.669Z,11.84
2023-05-21T02:04:46.502Z,11.85
2023-05-21T02:07:14.763Z,11.86
2023-05-21T02:09:41.607Z,11.88
2023-05-21T02:12:08.448Z,11.88
2023-05-21T02:14:35.917Z,11.86
2023-05-21T02:17:05.310Z,11.88
2023-05-21T02:19:32.562Z,11.93
2023-05-21T02:21:59.509Z,11.91
2023-05-21T02:24:26.345Z,11.90
2023-05-21T02:26:53.026Z,11.88
2023-05-21T02:29:20.049Z,11.84
2023-05-21T02:31:46.876Z,11.76
2023-05-21T02:34:13.786Z,11.68
2023-05-21T02:36:41.290Z,11.62
2023-05-21T02:39:08.053Z,11.55
2023-05-21T02:41:37.419Z,11.52
2023-05-21T02:44:04.585Z,11.54
2023-05-21T02:46:31.896Z,11.59
2023-05-21T02:48:58.969Z,11.58
2023-05-21T02:51:26.015Z,11.54
2023-05-21T02:53:52.756Z,11.52
2023-05-21T02:56:19.596Z,11.54
2023-05-21T02:58:46.653Z,11.61
2023-05-21T03:01:13.826Z,11.86
2023-05-21T03:03:40.977Z,12.20
2023-05-21T03:06:09.736Z,12.48
2023-05-21T03:08:37.082Z,12.74
2023-05-21T03:11:04.434Z,12.96
2023-05-21T03:13:31.340Z,13.27
2023-05-21T03:15:58.327Z,13.58
2023-05-21T03:18:25.168Z,14.00
2023-05-21T03:20:52.534Z,14.45
2023-05-21T03:23:19.269Z,14.89
2023-05-21T03:25:46.722Z,15.27
2023-05-21T03:28:14.385Z,15.56
2023-05-21T03:30:46.784Z,15.81
2023-05-21T03:33:28.548Z,16.06
2023-05-21T03:35:55.594Z,16.31
2023-05-21T03:38:23.466Z,16.64
2023-05-21T03:40:50.755Z,16.96
2023-05-21T03:43:17.773Z,17.16
2023-05-21T03:45:46.497Z,17.49
2023-05-21T03:48:40.220Z,17.93
2023-05-21T03:51:09.112Z,18.32
2023-05-21T03:53:36.463Z,18.75
2023-05-21T03:56:03.409Z,19.08
2023-05-21T03:58:31.083Z,19.49
2023-05-21T04:01:00.067Z,19.62
2023-05-21T04:03:27.316Z,19.72
2023-05-21T04:05:54.373Z,20.30
2023-05-21T04:08:21.218Z,20.54
2023-05-21T04:10:47.993Z,20.93
2023-05-21T04:13:15.509Z,21.39
2023-05-21T04:15:44.237Z,21.57
2023-05-21T04:18:13.181Z,21.71
2023-05-21T04:20:40.040Z,21.88
2023-05-21T04:23:07.277Z,22.38
2023-05-21T04:25:34.250Z,22.73
2023-05-21T04:28:02.759Z,22.60
2023-05-21T04:30:29.551Z,22.63
2023-05-21T04:32:57.527Z,23.05
2023-05-21T04:35:24.462Z,23.59
2023-05-21T04:37:51.708Z,23.72
2023-05-21T04:40:23.977Z,24.21
2023-05-21T04:42:51.101Z,24.40
2023-05-21T04:45:18.698Z,25.05
2023-05-21T04:47:45.876Z,25.13
2023-05-21T04:50:12.888Z,25.52
2023-05-21T04:52:39.930Z,25.53
2023-05-21T04:55:07.283Z,25.55
2023-05-21T04:57:35.264Z,26.00
2023-05-21T05:00:03.053Z,26.89
2023-05-21T05:02:35.828Z,27.41
2023-05-21T05:05:02.644Z,26.73
2023-05-21T05:07:29.387Z,27.11
2023-05-21T05:09:56.145Z,26.86
2023-05-21T05:12:23.012Z,27.31
2023-05-21T05:14:50.028Z,27.41
2023-05-21T05:17:16.676Z,27.55
2023-05-21T05:19:43.899Z,27.63
2023-05-21T05:22:12.924Z,27.92
2023-05-21T05:24:40.658Z,28.32
2023-05-21T05:27:07.397Z,28.24
2023-05-21T05:29:34.545Z,28.73
2023-05-21T05:32:01.386Z,28.88
2023-05-21T05:34:28.131Z,28.32
2023-05-21T05:36:56.772Z,28.38
2023-05-21T05:39:24.277Z,28.40
2023-05-21T05:41:52.015Z,28.17
2023-05-21T05:44:18.840Z,28.91
2023-05-21T05:46:45.624Z,29.57
2023-05-21T05:49:13.488Z,29.82
2023-05-21T05:51:40.630Z,29.73
2023-05-21T05:54:07.991Z,29.58
2023-05-21T05:56:35.644Z,28.86
2023-05-21T05:59:04.240Z,29.18
2023-05-21T06:01:31.504Z,28.86
2023-05-21T06:03:58.219Z,29.50
2023-05-21T06:06:25.267Z,29.13
2023-05-21T06:08:52.108Z,28.90
2023-05-21T06:11:21.207Z,29.87
2023-05-21T06:13:48.353Z,30.16
2023-05-21T06:16:17.195Z,29.73
2023-05-21T06:18:44.158Z,30.14
2023-05-21T06:21:11.038Z,30.18
2023-05-21T06:23:38.593Z,28.79
2023-05-21T06:26:05.946Z,28.09
2023-05-21T06:28:32.914Z,27.27
2023-05-21T06:30:59.747Z,27.68
2023-05-21T06:33:29.671Z,27.52
2023-05-21T06:35:56.596Z,27.96
2023-05-21T06:38:23.842Z,27.73
2023-05-21T06:40:50.583Z,27.36
2023-05-21T06:43:29.018Z,27.35
2023-05-21T06:46:14.507Z,27.05
2023-05-21T06:48:43.779Z,26.87
2023-05-21T06:51:11.157Z,26.82
2023-05-21T06:53:38.380Z,26.37
2023-05-21T06:56:07.785Z,26.87
2023-05-21T06:58:40.967Z,27.10
2023-05-21T07:01:07.847Z,27.17
2023-05-21T07:03:35.444Z,27.06
2023-05-21T07:06:02.079Z,26.74
2023-05-21T07:08:28.920Z,26.46
2023-05-21T07:10:56.448Z,25.93
2023-05-21T07:13:23.253Z,26.38
2023-05-21T07:15:50.340Z,26.54
2023-05-21T07:18:17.358Z,26.18
2023-05-21T07:20:44.344Z,26.20
2023-05-21T07:23:13.385Z,26.26
2023-05-21T07:25:40.124Z,26.22
2023-05-21T07:28:06.981Z,26.28
2023-05-21T07:30:34.111Z,26.07
2023-05-21T07:33:01.718Z,26.38
2023-05-21T07:35:28.893Z,26.39
2023-05-21T07:37:55.789Z,26.22
2023-05-21T07:40:22.648Z,26.38
2023-05-21T07:42:51.841Z,26.90
2023-05-21T07:45:19.298Z,26.72
2023-05-21T07:47:46.578Z,26.76
2023-05-21T07:50:15.622Z,26.88
2023-05-21T07:52:42.648Z,26.79
2023-05-21T07:55:09.921Z,26.87
2023-05-21T07:57:37.275Z,26.65
2023-05-21T08:00:09.453Z,26.65
2023-05-21T08:02:42.303Z,26.76
2023-05-21T08:05:10.691Z,26.78
2023-05-21T08:07:38.166Z,27.02
2023-05-21T08:10:05.926Z,27.09
2023-05-21T08:12:32.840Z,27.00
2023-05-21T08:14:59.892Z,27.24
2023-05-21T08:17:28.065Z,27.02
2023-05-21T08:19:55.064Z,26.92
2023-05-21T08:22:21.828Z,26.47
2023-05-21T08:24:49.328Z,26.25
2023-05-21T08:27:16.097Z,26.58
2023-05-21T08:29:43.525Z,26.68
2023-05-21T08:32:10.712Z,27.10
2023-05-21T08:34:37.996Z,27.19
2023-05-21T08:37:23.335Z,27.22
2023-05-21T08:40:03.983Z,27.38
2023-05-21T08:42:45.122Z,27.53
2023-05-21T08:45:22.296Z,27.39
2023-05-21T08:47:54.544Z,27.84
2023-05-21T08:50:21.448Z,27.88
2023-05-21T08:52:49.759Z,27.85
2023-05-21T08:55:17.106Z,28.14
2023-05-21T08:57:44.329Z,27.90
2023-05-21T09:00:16.382Z,28.40
2023-05-21T09:02:44.035Z,28.45
2023-05-21T09:05:11.915Z,28.02
2023-05-21T09:07:52.765Z,27.62
2023-05-21T09:10:41.783Z,27.99
2023-05-21T09:13:09.821Z,28.23
2023-05-21T09:15:36.901Z,28.21
2023-05-21T09:18:03.945Z,27.88
2023-05-21T09:20:46.363Z,28.17
2023-05-21T09:23:16.735Z,28.24
2023-05-21T09:25:48.510Z,28.49
2023-05-21T09:28:24.490Z,28.37
2023-05-21T09:30:53.622Z,27.62
2023-05-21T09:33:24.597Z,27.86
2023-05-21T09:35:51.554Z,27.83
2023-05-21T09:38:21.494Z,27.92
2023-05-21T09:40:48.297Z,27.51
2023-05-21T09:43:15.978Z,27.18
2023-05-21T09:45:53.005Z,27.45
2023-05-21T09:48:40.264Z,27.04
2023-05-21T09:51:18.999Z,27.05
2023-05-21T09:53:53.713Z,27.02
2023-05-21T09:56:23.936Z,26.74
2023-05-21T09:58:54.247Z,26.23
2023-05-21T10:01:21.330Z,26.65
2023-05-21T10:03:56.311Z,27.14
2023-05-21T10:06:27.605Z,27.08
2023-05-21T10:08:58.097Z,26.54
2023-05-21T10:11:26.604Z,26.49
2023-05-21T10:14:12.931Z,26.48
2023-05-21T10:16:40.208Z,26.55
2023-05-21T10:19:10.410Z,26.87
2023-05-21T10:21:39.456Z,26.76
2023-05-21T10:24:07.117Z,27.03
2023-05-21T10:26:33.962Z,26.80
2023-05-21T10:29:03.159Z,26.78
2023-05-21T10:31:31.435Z,26.56
2023-05-21T10:34:00.022Z,26.30
2023-05-21T10:36:29.624Z,26.17
2023-05-21T10:38:56.880Z,26.37
2023-05-21T10:41:26.098Z,26.36
2023-05-21T10:43:53.024Z,26.11
2023-05-21T10:46:38.746Z,25.93
2023-05-21T10:49:16.763Z,26.26
2023-05-21T10:51:46.263Z,26.31
2023-05-21T10:54:19.003Z,26.34
2023-05-21T10:56:52.541Z,26.15
2023-05-21T10:59:27.878Z,26.32
2023-05-21T11:01:56.418Z,26.39
2023-05-21T11:04:26.025Z,26.14
2023-05-21T11:06:52.912Z,26.31
2023-05-21T11:09:19.708Z,26.02
2023-05-21T11:11:50.438Z,26.25
2023-05-21T11:14:31.320Z,25.83
2023-05-21T11:16:58.823Z,25.27
2023-05-21T11:19:55.209Z,25.34
2023-05-21T11:22:23.688Z,25.41
2023-05-21T11:24:51.493Z,25.68
2023-05-21T11:27:30.818Z,25.82
2023-05-21T11:29:57.595Z,26.13
2023-05-21T11:32:24.554Z,26.31
2023-05-21T11:34:51.297Z,26.33
2023-05-21T11:37:18.009Z,26.17
2023-05-21T11:39:44.836Z,26.41
2023-05-21T11:42:12.163Z,26.57
2023-05-21T11:44:42.791Z,26.24
2023-05-21T11:47:10.542Z,26.40
2023-05-21T11:49:37.707Z,26.45
2023-05-21T11:52:05.668Z,26.70
2023-05-21T11:54:36.951Z,26.79
2023-05-21T11:57:07.516Z,26.77
2023-05-21T11:59:34.892Z,26.50
2023-05-21T12:02:02.759Z,26.52
2023-05-21T12:04:30.318Z,26.28
2023-05-21T12:07:00.029Z,25.97
2023-05-21T12:09:26.814Z,25.84
2023-05-21T12:11:53.535Z,25.82
2023-05-21T12:14:21.082Z,25.89
2023-05-21T12:16:47.889Z,25.94
2023-05-21T12:19:16.840Z,26.10
2023-05-21T12:21:43.541Z,26.01
2023-05-21T12:24:10.589Z,26.06
2023-05-21T12:26:38.462Z,25.77
2023-05-21T12:29:05.216Z,25.59
2023-05-21T12:31:32.373Z,25.28
2023-05-21T12:34:01.673Z,25.31
2023-05-21T12:36:34.398Z,25.45
2023-05-21T12:39:01.213Z,25.52
2023-05-21T12:41:29.072Z,25.55
2023-05-21T12:43:55.743Z,25.75
2023-05-21T12:46:22.890Z,25.86
2023-05-21T12:48:52.543Z,26.01
2023-05-21T12:51:19.671Z,25.92
2023-05-21T12:53:47.026Z,25.85
2023-05-21T12:56:15.678Z,25.75
2023-05-21T12:58:42.678Z,25.78
2023-05-21T13:01:10.205Z,25.90
2023-05-21T13:03:37.656Z,26.01
2023-05-21T13:06:08.436Z,25.59
2023-05-21T13:08:35.451Z,25.61
2023-05-21T13:11:02.718Z,25.43
2023-05-21T13:13:29.854Z,25.47
2023-05-21T13:15:56.776Z,25.57
2023-05-21T13:18:24.122Z,25.56
2023-05-21T13:20:51.244Z,25.58
2023-05-21T13:23:17.899Z,25.55
2023-05-21T13:25:44.521Z,25.60
2023-05-21T13:28:14.513Z,25.73
2023-05-21T13:30:41.448Z,25.82
2023-05-21T13:33:08.438Z,25.83
2023-05-21T13:35:35.666Z,25.77
2023-05-21T13:38:02.492Z,25.80
2023-05-21T13:40:29.145Z,25.90
2023-05-21T13:42:56.270Z,25.66
2023-05-21T13:45:28.382Z,25.49
2023-05-21T13:47:57.833Z,25.43
2023-05-21T13:50:24.785Z,25.47
2023-05-21T13:52:51.621Z,25.34
2023-05-21T13:55:18.667Z,25.11
2023-05-21T13:57:45.634Z,24.99
2023-05-21T14:00:14.772Z,24.98
2023-05-21T14:02:43.122Z,24.95
2023-05-21T14:05:10.966Z,25.00
2023-05-21T14:07:39.240Z,25.04
2023-05-21T14:10:06.396Z,24.90
2023-05-21T14:12:34.140Z,24.67
2023-05-21T14:15:00.820Z,24.58
2023-05-21T14:17:27.607Z,24.52
2023-05-21T14:19:55.184Z,24.61
2023-05-21T14:22:25.102Z,24.67
2023-05-21T14:24:52.253Z,24.74
2023-05-21T14:27:19.100Z,24.88
2023-05-21T14:29:45.842Z,24.87
2023-05-21T14:32:12.672Z,24.87
2023-05-21T14:34:40.036Z,24.80
2023-05-21T14:37:07.171Z,24.72
2023-05-21T14:39:34.016Z,24.59
2023-05-21T14:42:02.853Z,24.60
2023-05-21T14:44:29.648Z,24.44
2023-05-21T14:46:56.996Z,24.45
2023-05-21T14:49:23.760Z,24.39
2023-05-21T14:51:50.586Z,24.29
2023-05-21T14:54:17.319Z,24.08
2023-05-21T14:56:44.156Z,24.00
2023-05-21T14:59:12.333Z,23.98
2023-05-21T15:01:39.403Z,24.01
2023-05-21T15:04:07.344Z,24.01
2023-05-21T15:06:34.291Z,24.00
2023-05-21T15:09:01.146Z,24.06
2023-05-21T15:11:27.877Z,24.09
2023-05-21T15:13:54.612Z,24.08
2023-05-21T15:16:21.718Z,24.15
2023-05-21T15:18:49.682Z,24.16
2023-05-21T15:21:16.579Z,24.12
2023-05-21T15:23:43.315Z,24.08
2023-05-21T15:26:10.154Z,24.12
2023-05-21T15:28:36.997Z,24.09
2023-05-21T15:31:03.839Z,24.09
2023-05-21T15:33:30.683Z,24.11
2023-05-21T15:35:57.408Z,24.01
2023-05-21T15:38:24.138Z,24.07
2023-05-21T15:40:50.833Z,24.02
2023-05-21T15:43:17.446Z,23.98
2023-05-21T15:45:44.185Z,24.06
2023-05-21T15:48:12.133Z,24.09
2023-05-21T15:50:39.602Z,24.07
2023-05-21T15:53:06.460Z,24.03
2023-05-21T15:55:33.339Z,23.99
2023-05-21T15:58:02.198Z,23.94
2023-05-21T16:00:29.443Z,23.88
2023-05-21T16:02:56.629Z,23.88
2023-05-21T16:05:23.740Z,23.90
2023-05-21T16:07:50.990Z,23.88
2023-05-21T16:10:18.040Z,23.83
2023-05-21T16:12:44.872Z,23.78
2023-05-21T16:15:11.847Z,23.73
2023-05-21T16:17:38.506Z,23.66
2023-05-21T16:20:06.028Z,23.59
2023-05-21T16:22:32.752Z,23.59
2023-05-21T16:24:59.491Z,23.56
2023-05-21T16:27:26.236Z,23.55
2023-05-21T16:29:53.074Z,23.50
2023-05-21T16:32:19.831Z,23.47
2023-05-21T16:34:46.861Z,23.38
2023-05-21T16:37:13.601Z,23.30
2023-05-21T16:39:40.457Z,23.25
2023-05-21T16:42:08.630Z,23.21
2023-05-21T16:44:37.406Z,23.17
2023-05-21T16:47:04.672Z,23.08
2023-05-21T16:49:31.500Z,23.03
2023-05-21T16:51:58.244Z,22.97
2023-05-21T16:54:26.410Z,22.91
2023-05-21T16:56:54.500Z,22.84
2023-05-21T16:59:21.331Z,22.80
2023-05-21T17:01:48.427Z,22.69
2023-05-21T17:04:15.324Z,22.63
2023-05-21T17:06:42.057Z,22.56
2023-05-21T17:09:08.803Z,22.45
2023-05-21T17:11:35.668Z,22.38
2023-05-21T17:14:02.502Z,22.34
2023-05-21T17:16:29.410Z,22.29
2023-05-21T17:18:56.525Z,22.19
2023-05-21T17:21:23.423Z,22.13
2023-05-21T17:23:50.166Z,22.08
2023-05-21T17:26:16.901Z,21.98
2023-05-21T17:28:43.858Z,21.93
2023-05-21T17:31:10.766Z,21.89
2023-05-21T17:33:38.956Z,21.82
2023-05-21T17:36:05.734Z,21.73
2023-05-21T17:38:32.608Z,21.66
2023-05-21T17:40:59.404Z,21.61
2023-05-21T17:43:27.255Z,21.56
2023-05-21T17:45:54.141Z,21.49
2023-05-21T17:48:21.013Z,21.42
2023-05-21T17:50:48.000Z,21.34
2023-05-21T17:53:14.844Z,21.27
2023-05-21T17:55:41.688Z,21.19
2023-05-21T17:58:09.634Z,21.09
2023-05-21T18:00:36.655Z,21.02
2023-05-21T18:03:03.545Z,20.97
2023-05-21T18:05:30.884Z,20.91
2023-05-21T18:07:58.648Z,20.85
2023-05-21T18:10:25.486Z,20.79
2023-05-21T18:12:52.359Z,20.73
2023-05-21T18:15:19.065Z,20.66
2023-05-21T18:17:46.982Z,20.60
2023-05-21T18:20:14.184Z,20.52
2023-05-21T18:22:40.859Z,20.47
2023-05-21T18:25:08.400Z,20.42
2023-05-21T18:27:35.445Z,20.36
2023-05-21T18:30:04.962Z,20.29
2023-05-21T18:32:33.091Z,20.22
2023-05-21T18:34:59.947Z,20.16
2023-05-21T18:37:26.898Z,20.09
2023-05-21T18:39:53.736Z,20.03
2023-05-21T18:42:20.371Z,19.94
2023-05-21T18:44:50.185Z,19.86
2023-05-21T18:47:17.033Z,19.76
2023-05-21T18:49:43.976Z,19.67
2023-05-21T18:52:10.821Z,19.58
2023-05-21T18:54:37.675Z,19.49
2023-05-21T18:57:04.608Z,19.39
2023-05-21T18:59:31.348Z,19.31
2023-05-21T19:01:58.151Z,19.19
2023-05-21T19:04:25.051Z,19.08
2023-05-21T19:06:51.885Z,19.00
2023-05-21T19:09:18.615Z,18.92
2023-05-21T19:11:45.460Z,18.87
2023-05-21T19:14:12.292Z,18.83
2023-05-21T19:16:39.205Z,18.79
2023-05-21T19:19:07.254Z,18.70
2023-05-21T19:21:34.357Z,18.61
2023-05-21T19:24:01.619Z,18.53
2023-05-21T19:26:29.889Z,18.43
2023-05-21T19:28:56.728Z,18.39
2023-05-21T19:31:24.700Z,18.32
2023-05-21T19:33:51.840Z,18.29
2023-05-21T19:36:18.790Z,18.23
2023-05-21T19:38:47.679Z,18.16
2023-05-21T19:41:15.138Z,18.07
2023-05-21T19:43:41.877Z,18.02
2023-05-21T19:46:09.281Z,17.96
2023-05-21T19:48:36.384Z,17.88
2023-05-21T19:51:04.268Z,17.79
2023-05-21T19:53:30.999Z,17.72
2023-05-21T19:55:58.035Z,17.64
2023-05-21T19:58:26.513Z,17.55
2023-05-21T20:00:57.944Z,17.47
2023-05-21T20:03:26.806Z,17.40
2023-05-21T20:05:56.708Z,17.35
2023-05-21T20:08:23.618Z,17.31
2023-05-21T20:10:52.043Z,17.24
2023-05-21T20:13:21.086Z,17.21
2023-05-21T20:15:49.516Z,17.24
2023-05-21T20:18:16.570Z,17.29
2023-05-21T20:20:43.561Z,17.34
2023-05-21T20:23:10.524Z,17.36
2023-05-21T20:25:37.473Z,17.35
2023-05-21T20:28:05.245Z,17.35
2023-05-21T20:30:33.070Z,17.42
2023-05-21T20:33:03.081Z,17.40
2023-05-21T20:35:30.269Z,17.36
2023-05-21T20:37:57.079Z,17.31
2023-05-21T20:40:24.040Z,17.26
2023-05-21T20:42:53.809Z,17.21
2023-05-21T20:45:29.178Z,17.19
2023-05-21T20:47:56.565Z,17.18
2023-05-21T20:50:25.627Z,17.17
2023-05-21T20:52:52.574Z,17.22
2023-05-21T20:55:20.435Z,17.25
2023-05-21T20:57:47.282Z,17.26
2023-05-21T21:00:15.503Z,17.25
2023-05-21T21:02:42.496Z,17.23
2023-05-21T21:05:09.865Z,17.23
2023-05-21T21:07:37.208Z,17.19
2023-05-21T21:10:04.360Z,17.13
2023-05-21T21:12:31.118Z,17.05
2023-05-21T21:14:57.840Z,16.97
2023-05-21T21:17:24.674Z,16.89
2023-05-21T21:19:51.625Z,16.81
2023-05-21T21:22:18.653Z,16.77
2023-05-21T21:24:45.899Z,16.78
2023-05-21T21:27:12.784Z,16.77
2023-05-21T21:29:39.506Z,16.76
2023-05-21T21:32:06.571Z,16.74
2023-05-21T21:34:33.292Z,16.71
2023-05-21T21:37:00.067Z,16.70
2023-05-21T21:39:26.988Z,16.68
2023-05-21T21:41:53.754Z,16.62
2023-05-21T21:44:20.709Z,16.55
2023-05-21T21:46:47.722Z,16.46
2023-05-21T21:49:16.812Z,16.39
2023-05-21T21:51:48.104Z,16.29
2023-05-21T21:54:15.101Z,16.16
2023-05-21T21:56:42.042Z,16.00
2023-05-21T21:59:08.886Z,15.88
2023-05-21T22:01:36.500Z,15.76
2023-05-21T22:04:03.500Z,15.63
2023-05-21T22:06:30.951Z,15.49
2023-05-21T22:08:57.743Z,15.35
2023-05-21T22:11:25.763Z,15.20
2023-05-21T22:13:53.525Z,15.08
2023-05-21T22:16:20.406Z,14.95
2023-05-21T22:18:49.713Z,14.77
2023-05-21T22:21:18.044Z,14.63
2023-05-21T22:23:45.130Z,14.49
2023-05-21T22:26:11.961Z,14.36
2023-05-21T22:28:38.783Z,14.20
2023-05-21T22:31:05.668Z,14.10
2023-05-21T22:33:32.583Z,13.99
2023-05-21T22:35:59.413Z,13.89
2023-05-21T22:38:26.111Z,13.78
2023-05-21T22:40:53.011Z,13.68
2023-05-21T22:43:19.941Z,13.60
2023-05-21T22:45:46.885Z,13.53
2023-05-21T22:48:13.929Z,13.45
2023-05-21T22:50:41.132Z,13.41
2023-05-21T22:53:09.664Z,13.36
2023-05-21T22:55:36.403Z,13.31
2023-05-21T22:58:03.263Z,13.26
2023-05-21T23:00:30.097Z,13.22
2023-05-21T23:02:56.967Z,13.15
2023-05-21T23:05:23.874Z,13.06
2023-05-21T23:07:50.923Z,12.96
2023-05-21T23:10:17.841Z,12.83
2023-05-21T23:12:44.623Z,12.69
2023-05-21T23:15:11.551Z,12.56
2023-05-21T23:17:38.768Z,12.47
2023-05-21T23:20:06.772Z,12.40
2023-05-21T23:22:33.712Z,12.27
2023-05-21T23:25:00.876Z,12.14
2023-05-21T23:27:27.714Z,12.07
2023-05-21T23:29:54.563Z,12.01
2023-05-21T23:32:22.875Z,11.91
2023-05-21T23:34:49.666Z,11.83
2023-05-21T23:37:16.401Z,11.77
2023-05-21T23:39:45.090Z,11.71
2023-05-21T23:42:12.032Z,11.63
2023-05-21T23:44:38.783Z,11.61
2023-05-21T23:47:06.148Z,11.60
2023-05-21T23:49:32.971Z,11.57
2023-05-21T23:52:01.356Z,11.54
2023-05-21T23:54:28.019Z,11.51
2023-05-21T23:56:54.829Z,11.44
2023-05-21T23:59:21.581Z,11.40
